createdAt,value
2023-05-12T00:00:18.057Z,15.93
2023-05-12T00:02:46.995Z,10.95
2023-05-12T00:05:15.530Z,17.70
2023-05-12T00:07:43.920Z,12.82
2023-05-12T00:10:12.781Z,15.82
2023-05-12T00:12:42.567Z,14.73
2023-05-12T00:15:13.911Z,17.13
2023-05-12T00:17:42.493Z,15.60
2023-05-12T00:20:12.971Z,16.95
2023-05-12T00:22:42.198Z,15.27
2023-05-12T00:25:11.876Z,17.00
2023-05-12T00:27:40.796Z,16.85
2023-05-12T00:30:12.103Z,16.73
2023-05-12T00:32:40.568Z,14.88
2023-05-12T00:35:09.884Z,15.25
2023-05-12T00:37:38.381Z,14.32
2023-05-12T00:40:08.086Z,17.02
2023-05-12T00:42:36.524Z,18.88
2023-05-12T00:45:06.347Z,13.23
2023-05-12T00:47:36.513Z,13.18
2023-05-12T00:50:08.720Z,14.52
2023-05-12T00:52:37.602Z,13.27
2023-05-12T00:55:07.324Z,20.90
2023-05-12T00:57:35.823Z,18.75
2023-05-12T01:00:05.205Z,17.33
2023-05-12T01:02:34.139Z,16.38
2023-05-12T01:05:04.819Z,19.63
2023-05-12T01:07:34.717Z,21.15
2023-05-12T01:10:03.523Z,17.83
2023-05-12T01:12:32.638Z,21.17
2023-05-12T01:15:01.293Z,19.48
2023-05-12T01:17:33.900Z,18.02
2023-05-12T01:20:06.306Z,20.13
2023-05-12T01:22:35.621Z,19.77
2023-05-12T01:25:07.090Z,18.48
2023-05-12T01:27:40.253Z,24.60
2023-05-12T01:30:11.381Z,19.92
2023-05-12T01:32:41.556Z,23.52
2023-05-12T01:35:10.583Z,15.50
2023-05-12T01:37:38.950Z,19.95
2023-05-12T01:40:08.672Z,21.27
2023-05-12T01:42:40.563Z,18.85
2023-05-12T01:45:10.472Z,18.98
2023-05-12T01:47:38.898Z,15.75
2023-05-12T01:50:08.528Z,20.75
2023-05-12T01:52:37.089Z,17.27
2023-05-12T01:55:07.470Z,19.70
2023-05-12T01:57:35.890Z,17.13
2023-05-12T02:00:06.537Z,19.13
2023-05-12T02:02:35.119Z,14.35
2023-05-12T02:05:03.856Z,20.67
2023-05-12T02:07:32.453Z,16.23
2023-05-12T02:10:01.472Z,13.85
2023-05-12T02:12:29.844Z,16.05
2023-05-12T02:15:00.218Z,15.57
2023-05-12T02:17:31.532Z,17.13
2023-05-12T02:19:59.996Z,17.52
2023-05-12T02:22:28.443Z,17.02
2023-05-12T02:24:57.004Z,20.45
2023-05-12T02:27:25.507Z,15.88
2023-05-12T02:29:54.222Z,18.58
2023-05-12T02:32:22.773Z,18.42
2023-05-12T02:34:53.032Z,15.68
2023-05-12T02:37:21.755Z,16.63
2023-05-12T02:39:50.325Z,16.75
2023-05-12T02:42:18.788Z,16.13
2023-05-12T02:44:48.318Z,14.10
2023-05-12T02:47:17.139Z,17.98
2023-05-12T02:49:45.493Z,15.88
2023-05-12T02:52:15.614Z,16.27
2023-05-12T02:54:44.128Z,20.73
2023-05-12T02:57:13.027Z,16.25
2023-05-12T02:59:41.549Z,18.95
2023-05-12T03:02:10.639Z,16.27
2023-05-12T03:04:39.409Z,15.65
2023-05-12T03:07:08.306Z,15.70
2023-05-12T03:09:38.494Z,19.60
2023-05-12T03:12:07.454Z,15.68
2023-05-12T03:14:35.759Z,15.32
2023-05-12T03:17:04.765Z,12.15
2023-05-12T03:19:33.134Z,14.27
2023-05-12T03:22:02.379Z,15.55
2023-05-12T03:24:31.584Z,13.70
2023-05-12T03:27:01.687Z,14.15
2023-05-12T03:29:30.310Z,15.88
2023-05-12T03:31:59.335Z,17.20
2023-05-12T03:34:27.647Z,16.17
2023-05-12T03:36:56.024Z,13.13
2023-05-12T03:39:25.136Z,18.33
2023-05-12T03:41:53.829Z,16.45
2023-05-12T03:44:23.955Z,16.35
2023-05-12T03:46:52.751Z,15.73
2023-05-12T03:49:21.992Z,19.83
2023-05-12T03:51:50.597Z,18.65
2023-05-12T03:54:19.069Z,14.90
2023-05-12T03:56:48.063Z,18.67
2023-05-12T03:59:16.643Z,18.20
2023-05-12T04:01:46.935Z,15.23
2023-05-12T04:04:15.482Z,15.30
2023-05-12T04:06:44.396Z,13.93
2023-05-12T04:09:13.001Z,14.32
2023-05-12T04:11:41.538Z,15.70
2023-05-12T04:14:10.247Z,15.10
2023-05-12T04:16:41.370Z,17.73
2023-05-12T04:19:12.245Z,16.90
2023-05-12T04:21:40.944Z,16.77
2023-05-12T04:24:10.675Z,15.35
2023-05-12T04:26:39.645Z,14.07
2023-05-12T04:29:08.431Z,15.00
2023-05-12T04:31:37.112Z,14.82
2023-05-12T04:34:05.604Z,15.80
2023-05-12T04:36:35.686Z,17.90
2023-05-12T04:39:04.814Z,13.85
2023-05-12T04:41:33.364Z,15.27
2023-05-12T04:44:01.669Z,15.63
2023-05-12T04:46:30.643Z,11.82
2023-05-12T04:48:59.878Z,15.10
2023-05-12T04:51:28.754Z,13.40
2023-05-12T04:53:58.812Z,12.98
2023-05-12T04:56:27.202Z,20.42
2023-05-12T04:58:56.662Z,13.18
2023-05-12T05:01:25.269Z,14.15
2023-05-12T05:03:54.040Z,15.95
2023-05-12T05:06:22.772Z,15.18
2023-05-12T05:08:51.206Z,13.27
2023-05-12T05:11:22.515Z,14.88
2023-05-12T05:13:50.847Z,15.52
2023-05-12T05:16:19.327Z,12.20
2023-05-12T05:18:47.837Z,16.17
2023-05-12T05:21:16.963Z,15.40
2023-05-12T05:23:45.686Z,13.48
2023-05-12T05:26:14.280Z,12.70
2023-05-12T05:28:44.284Z,13.23
2023-05-12T05:31:17.770Z,15.32
2023-05-12T05:33:46.329Z,15.60
2023-05-12T05:36:15.004Z,13.48
2023-05-12T05:38:43.876Z,16.45
2023-05-12T05:41:12.320Z,17.13
2023-05-12T05:43:40.908Z,15.07
2023-05-12T05:46:11.343Z,16.88
2023-05-12T05:48:39.912Z,14.75
2023-05-12T05:51:08.420Z,14.70
2023-05-12T05:53:36.809Z,14.57
2023-05-12T05:56:05.867Z,12.75
2023-05-12T05:58:34.722Z,13.43
2023-05-12T06:01:03.823Z,17.08
2023-05-12T06:03:33.810Z,16.55
2023-05-12T06:06:02.992Z,16.58
2023-05-12T06:08:31.821Z,14.98
2023-05-12T06:11:00.526Z,14.88
2023-05-12T06:13:29.221Z,13.00
2023-05-12T06:15:57.962Z,14.05
2023-05-12T06:18:26.799Z,17.45
2023-05-12T06:20:57.180Z,18.77
2023-05-12T06:23:25.627Z,13.15
2023-05-12T06:25:53.911Z,14.00
2023-05-12T06:28:22.350Z,13.48
2023-05-12T06:30:50.999Z,13.35
2023-05-12T06:33:19.271Z,13.27
2023-05-12T06:35:48.610Z,16.60
2023-05-12T06:38:19.449Z,14.57
2023-05-12T06:40:48.337Z,17.15
2023-05-12T06:43:16.808Z,18.65
2023-05-12T06:45:45.330Z,13.80
2023-05-12T06:48:14.240Z,17.60
2023-05-12T06:50:43.918Z,18.98
2023-05-12T06:53:13.261Z,19.58
2023-05-12T06:55:44.383Z,19.70
2023-05-12T06:58:15.382Z,15.45
2023-05-12T07:00:45.191Z,17.75
2023-05-12T07:03:14.885Z,15.48
2023-05-12T07:05:45.909Z,19.33
2023-05-12T07:08:14.792Z,17.30
2023-05-12T07:10:46.107Z,17.10
2023-05-12T07:13:19.159Z,15.50
2023-05-12T07:15:47.564Z,16.63
2023-05-12T07:18:20.387Z,15.60
2023-05-12T07:20:49.334Z,14.77
2023-05-12T07:23:19.275Z,16.10
2023-05-12T07:26:00.063Z,14.70
2023-05-12T07:28:28.828Z,16.27
2023-05-12T07:31:03.030Z,14.02
2023-05-12T07:33:35.094Z,15.70
2023-05-12T07:36:04.891Z,18.40
2023-05-12T07:38:34.589Z,15.45
2023-05-12T07:41:05.585Z,12.88
2023-05-12T07:43:34.442Z,14.02
2023-05-12T07:46:02.842Z,14.10
2023-05-12T07:48:40.537Z,13.68
2023-05-12T07:51:09.856Z,11.30
2023-05-12T07:53:38.424Z,13.93
2023-05-12T07:56:08.599Z,13.85
2023-05-12T07:58:37.292Z,16.50
2023-05-12T08:01:08.211Z,17.13
2023-05-12T08:03:38.102Z,13.65
2023-05-12T08:06:07.604Z,13.45
2023-05-12T08:08:37.036Z,10.65
2023-05-12T08:11:05.460Z,12.57
2023-05-12T08:13:35.420Z,11.73
2023-05-12T08:16:04.014Z,14.85
2023-05-12T08:18:33.093Z,22.27
2023-05-12T08:21:01.603Z,14.38
2023-05-12T08:23:29.820Z,12.75
2023-05-12T08:25:58.422Z,15.27
2023-05-12T08:28:57.695Z,13.52
2023-05-12T08:31:31.926Z,10.65
2023-05-12T08:34:09.830Z,14.13
2023-05-12T08:36:39.891Z,10.80
2023-05-12T08:39:10.435Z,9.43
2023-05-12T08:41:46.059Z,17.92
2023-05-12T08:44:14.826Z,10.23
2023-05-12T08:46:45.307Z,10.10
2023-05-12T08:49:18.667Z,11.15
2023-05-12T08:51:57.240Z,13.82
2023-05-12T08:54:29.664Z,8.95
2023-05-12T08:59:31.228Z,9.27
2023-05-12T09:02:04.645Z,11.73
2023-05-12T09:04:34.165Z,15.25
2023-05-12T09:07:02.845Z,11.55
2023-05-12T09:09:34.190Z,8.52
2023-05-12T09:12:04.668Z,11.52
2023-05-12T09:14:37.980Z,11.15
2023-05-12T09:17:08.941Z,11.77
2023-05-12T09:19:37.776Z,10.88
2023-05-12T09:22:08.118Z,10.63
2023-05-12T09:24:37.897Z,12.80
2023-05-12T09:27:07.328Z,10.85
2023-05-12T09:29:42.506Z,11.98
2023-05-12T09:32:18.447Z,11.07
2023-05-12T09:34:47.040Z,15.77
2023-05-12T09:37:16.047Z,10.82
2023-05-12T09:39:46.492Z,12.90
2023-05-12T09:42:16.489Z,11.68
2023-05-12T09:44:47.439Z,9.65
2023-05-12T09:47:20.251Z,11.32
2023-05-12T09:49:55.381Z,12.95
2023-05-12T09:52:24.089Z,14.35
2023-05-12T09:54:54.700Z,13.55
2023-05-12T09:57:24.527Z,10.48
2023-05-12T09:59:55.156Z,10.27
2023-05-12T10:02:59.932Z,9.50
2023-05-12T10:05:30.337Z,8.15
2023-05-12T10:08:02.033Z,12.68
2023-05-12T10:10:30.821Z,12.73
2023-05-12T10:13:03.022Z,9.80
2023-05-12T10:15:32.778Z,12.32
2023-05-12T10:18:03.297Z,15.90
2023-05-12T10:20:33.908Z,11.98
2023-05-12T10:23:03.453Z,7.28
2023-05-12T10:25:35.127Z,6.88
2023-05-12T10:28:05.207Z,8.80
2023-05-12T10:30:34.989Z,7.70
2023-05-12T10:33:05.587Z,9.18
2023-05-12T10:35:35.237Z,8.95
2023-05-12T10:38:07.311Z,9.15
2023-05-12T10:40:36.430Z,10.65
2023-05-12T10:43:05.223Z,10.45
2023-05-12T10:45:38.744Z,12.32
2023-05-12T10:48:10.444Z,12.30
2023-05-12T10:50:39.036Z,12.93
2023-05-12T10:53:13.003Z,10.15
2023-05-12T10:55:50.505Z,8.90
2023-05-12T10:58:19.495Z,6.45
2023-05-12T11:00:51.946Z,11.07
2023-05-12T11:03:27.673Z,8.60
2023-05-12T11:06:02.915Z,11.43
2023-05-12T11:08:35.917Z,6.28
2023-05-12T11:11:06.213Z,11.82
2023-05-12T11:13:37.757Z,11.05
2023-05-12T11:16:06.891Z,13.23
2023-05-12T11:18:37.241Z,7.78
2023-05-12T11:21:12.345Z,10.40
2023-05-12T11:24:51.862Z,10.90
2023-05-12T11:27:23.380Z,11.25
2023-05-12T11:29:59.112Z,11.35
2023-05-12T11:32:27.847Z,9.75
2023-05-12T11:34:58.767Z,9.65
2023-05-12T11:37:27.925Z,8.43
2023-05-12T11:39:56.628Z,5.72
2023-05-12T11:42:25.925Z,8.07
2023-05-12T11:44:55.810Z,11.70
2023-05-12T11:47:24.091Z,9.02
2023-05-12T11:49:54.826Z,10.15
2023-05-12T11:52:26.134Z,9.88
2023-05-12T11:55:00.407Z,6.43
2023-05-12T11:57:30.333Z,7.75
2023-05-12T12:00:00.834Z,7.10
2023-05-12T12:02:30.386Z,8.60
2023-05-12T12:04:59.278Z,8.82
2023-05-12T12:07:34.128Z,8.57
2023-05-12T12:10:13.715Z,6.97
2023-05-12T12:12:42.175Z,7.95
2023-05-12T12:15:11.634Z,7.70
2023-05-12T12:17:40.884Z,7.00
2023-05-12T12:20:10.962Z,8.32
2023-05-12T12:22:41.203Z,6.88
2023-05-12T12:25:11.294Z,5.13
2023-05-12T12:27:39.922Z,7.40
2023-05-12T12:30:10.415Z,8.25
2023-05-12T12:32:39.202Z,9.23
2023-05-12T12:35:09.419Z,7.85
2023-05-12T12:37:37.938Z,7.10
2023-05-12T12:40:10.418Z,6.55
2023-05-12T12:42:41.484Z,6.57
2023-05-12T12:45:11.107Z,7.03
2023-05-12T12:47:40.258Z,6.32
2023-05-12T12:50:10.891Z,7.60
2023-05-12T12:52:39.605Z,9.98
2023-05-12T12:55:10.867Z,6.10
2023-05-12T12:57:39.816Z,5.95
2023-05-12T13:00:10.415Z,5.40
2023-05-12T13:02:39.645Z,9.07
2023-05-12T13:05:09.705Z,6.75
2023-05-12T13:07:39.342Z,7.63
2023-05-12T13:10:10.575Z,4.85
2023-05-12T13:12:40.180Z,7.45
2023-05-12T13:15:10.923Z,8.05
2023-05-12T13:17:39.745Z,6.90
2023-05-12T13:20:09.531Z,8.88
2023-05-12T13:22:38.177Z,7.90
2023-05-12T13:25:08.135Z,7.47
2023-05-12T13:27:38.680Z,5.43
2023-05-12T13:30:10.088Z,6.32
2023-05-12T13:32:40.276Z,5.78
2023-05-12T13:35:09.156Z,8.95
2023-05-12T13:37:37.968Z,9.60
2023-05-12T13:40:08.198Z,4.50
2023-05-12T13:42:38.764Z,5.18
2023-05-12T13:45:09.684Z,3.85
2023-05-12T13:47:38.392Z,4.57
2023-05-12T13:50:08.395Z,7.57
2023-05-12T13:52:37.657Z,7.88
2023-05-12T13:55:07.177Z,7.50
2023-05-12T13:57:35.978Z,7.05
2023-05-12T14:00:08.773Z,5.72
2023-05-12T14:02:37.130Z,8.93
2023-05-12T14:05:07.122Z,7.93
2023-05-12T14:07:36.186Z,6.03
2023-05-12T14:10:04.841Z,7.85
2023-05-12T14:12:33.221Z,5.72
2023-05-12T14:15:11.172Z,5.70
2023-05-12T14:17:52.054Z,5.07
2023-05-12T14:20:20.944Z,5.05
2023-05-12T14:22:49.465Z,3.90
2023-05-12T14:25:18.083Z,6.40
2023-05-12T14:27:46.694Z,4.18
2023-05-12T14:30:16.782Z,5.45
2023-05-12T14:32:46.421Z,7.43
2023-05-12T14:35:16.585Z,7.25
2023-05-12T14:37:45.923Z,9.00
2023-05-12T14:40:15.550Z,5.07
2023-05-12T14:42:44.068Z,7.10
2023-05-12T14:45:14.515Z,10.23
2023-05-12T14:47:43.386Z,5.40
2023-05-12T14:50:13.891Z,5.18
2023-05-12T14:52:43.834Z,5.47
2023-05-12T14:55:13.812Z,9.50
2023-05-12T14:57:43.232Z,8.25
2023-05-12T15:00:13.963Z,7.30
2023-05-12T15:02:44.383Z,7.75
2023-05-12T15:05:15.428Z,7.47
2023-05-12T15:07:45.277Z,10.10
2023-05-12T15:10:13.859Z,8.07
2023-05-12T15:12:42.682Z,5.72
2023-05-12T15:15:12.947Z,6.40
2023-05-12T15:17:41.723Z,7.03
2023-05-12T15:20:11.382Z,7.43
2023-05-12T15:22:40.025Z,6.00
2023-05-12T15:25:12.051Z,6.22
2023-05-12T15:27:40.848Z,6.72
2023-05-12T15:30:10.890Z,9.38
2023-05-12T15:32:41.349Z,8.27
2023-05-12T15:35:10.955Z,7.78
2023-05-12T15:37:39.475Z,5.70
2023-05-12T15:40:13.272Z,6.20
2023-05-12T15:42:42.220Z,6.70
2023-05-12T15:45:11.557Z,6.07
2023-05-12T15:47:40.189Z,5.28
2023-05-12T15:50:11.665Z,6.30
2023-05-12T15:52:40.152Z,5.30
2023-05-12T15:55:10.353Z,4.85
2023-05-12T15:57:38.727Z,4.47
2023-05-12T16:00:09.262Z,5.63
2023-05-12T16:02:37.763Z,5.07
2023-05-12T16:05:10.003Z,5.13
2023-05-12T16:07:39.059Z,5.68
2023-05-12T16:10:10.537Z,4.00
2023-05-12T16:12:39.157Z,5.47
2023-05-12T16:15:08.434Z,4.57
2023-05-12T16:17:37.247Z,3.75
2023-05-12T16:20:08.314Z,4.45
2023-05-12T16:22:36.858Z,5.75
2023-05-12T16:25:06.755Z,3.35
2023-05-12T16:27:36.756Z,5.57
2023-05-12T16:30:06.265Z,2.80
2023-05-12T16:32:35.074Z,3.17
2023-05-12T16:35:03.829Z,3.15
2023-05-12T16:37:35.027Z,2.92
2023-05-12T16:40:03.803Z,3.70
2023-05-12T16:42:32.310Z,3.35
2023-05-12T16:45:02.466Z,2.80
2023-05-12T16:47:30.905Z,2.80
2023-05-12T16:49:59.702Z,2.83
2023-05-12T16:52:29.985Z,3.28
2023-05-12T16:54:58.629Z,4.38
2023-05-12T16:57:27.225Z,2.42
2023-05-12T16:59:55.522Z,2.88
2023-05-12T17:02:25.788Z,1.90
2023-05-12T17:04:54.394Z,4.85
2023-05-12T17:07:23.409Z,3.83
2023-05-12T17:09:52.142Z,2.47
2023-05-12T17:12:20.920Z,2.90
2023-05-12T17:14:59.354Z,2.80
2023-05-12T17:17:36.918Z,3.75
2023-05-12T17:20:06.226Z,3.40
2023-05-12T17:22:43.551Z,1.67
2023-05-12T17:25:15.871Z,5.40
2023-05-12T17:27:44.575Z,2.63
2023-05-12T17:30:13.713Z,4.25
2023-05-12T17:32:44.841Z,2.40
2023-05-12T17:35:13.734Z,6.05
2023-05-12T17:37:42.618Z,3.85
2023-05-12T17:40:16.898Z,3.42
2023-05-12T17:42:45.608Z,3.58
2023-05-12T17:45:15.224Z,3.30
2023-05-12T17:47:46.482Z,2.78
2023-05-12T17:50:16.567Z,2.15
2023-05-12T17:52:45.530Z,4.35
2023-05-12T17:55:14.198Z,3.38
2023-05-12T17:57:42.711Z,3.33
2023-05-12T18:00:13.323Z,2.70
2023-05-12T18:02:42.645Z,7.57
2023-05-12T18:05:12.800Z,3.30
2023-05-12T18:07:41.332Z,3.58
2023-05-12T18:10:10.431Z,1.50
2023-05-12T18:12:39.602Z,1.98
2023-05-12T18:15:09.551Z,3.55
2023-05-12T18:17:38.380Z,1.52
2023-05-12T18:20:08.948Z,2.03
2023-05-12T18:22:39.231Z,4.28
2023-05-12T18:25:10.025Z,3.47
2023-05-12T18:27:38.504Z,1.83
2023-05-12T18:30:08.994Z,2.72
2023-05-12T18:32:38.246Z,5.25
2023-05-12T18:35:08.693Z,5.95
2023-05-12T18:37:38.846Z,5.28
2023-05-12T18:40:08.692Z,3.95
2023-05-12T18:42:37.566Z,3.38
2023-05-12T18:45:07.115Z,2.95
2023-05-12T18:47:35.491Z,3.58
2023-05-12T18:50:05.811Z,5.03
2023-05-12T18:52:34.287Z,2.25
2023-05-12T18:55:04.395Z,3.42
2023-05-12T18:57:33.296Z,4.70
2023-05-12T19:00:01.818Z,4.30
2023-05-12T19:02:31.771Z,4.30
2023-05-12T19:05:00.400Z,3.50
2023-05-12T19:07:28.894Z,3.65
2023-05-12T19:09:57.579Z,3.35
2023-05-12T19:12:27.787Z,4.60
2023-05-12T19:14:56.669Z,5.65
2023-05-12T19:17:25.385Z,5.90
2023-05-12T19:19:53.771Z,5.93
2023-05-12T19:22:23.712Z,5.35
2023-05-12T19:24:52.635Z,4.18
2023-05-12T19:27:21.208Z,7.60
2023-05-12T19:29:51.316Z,6.22
2023-05-12T19:32:19.973Z,4.35
2023-05-12T19:34:51.235Z,4.43
2023-05-12T19:37:20.773Z,3.05
2023-05-12T19:39:50.586Z,5.50
2023-05-12T19:42:19.053Z,5.07
2023-05-12T19:44:47.505Z,7.00
2023-05-12T19:47:19.385Z,3.85
2023-05-12T19:49:48.384Z,6.50
2023-05-12T19:52:16.854Z,6.15
2023-05-12T19:54:45.261Z,5.13
2023-05-12T19:57:13.778Z,7.18
2023-05-12T19:59:43.329Z,5.05
2023-05-12T20:02:14.998Z,5.15
2023-05-12T20:04:45.517Z,7.15
2023-05-12T20:07:14.199Z,6.95
2023-05-12T20:09:42.555Z,6.13
2023-05-12T20:12:11.444Z,5.20
2023-05-12T20:14:40.005Z,6.03
2023-05-12T20:17:09.617Z,7.65
2023-05-12T20:19:38.364Z,4.85
2023-05-12T20:22:08.301Z,6.95
2023-05-12T20:24:39.404Z,6.05
2023-05-12T20:27:08.002Z,7.75
2023-05-12T20:29:36.402Z,12.00
2023-05-12T20:32:05.192Z,9.07
2023-05-12T20:34:33.538Z,6.55
2023-05-12T20:37:02.510Z,7.20
2023-05-12T20:39:35.267Z,6.90
2023-05-12T20:42:04.193Z,8.18
2023-05-12T20:44:32.578Z,9.20
2023-05-12T20:47:02.469Z,8.68
2023-05-12T20:49:33.179Z,8.00
2023-05-12T20:52:03.682Z,10.73
2023-05-12T20:54:32.354Z,13.57
2023-05-12T20:57:02.607Z,9.75
2023-05-12T20:59:31.330Z,9.05
2023-05-12T21:02:00.112Z,12.60
2023-05-12T21:04:28.920Z,9.85
2023-05-12T21:06:58.916Z,9.10
2023-05-12T21:09:27.338Z,9.98
2023-05-12T21:11:55.790Z,13.30
2023-05-12T21:14:36.449Z,9.15
2023-05-12T21:17:10.973Z,10.32
2023-05-12T21:19:44.937Z,11.20
2023-05-12T21:22:13.582Z,9.70
2023-05-12T21:24:42.402Z,9.82
2023-05-12T21:27:11.825Z,12.10
2023-05-12T21:29:41.805Z,9.52
2023-05-12T21:32:13.418Z,12.73
2023-05-12T21:34:43.009Z,9.95
2023-05-12T21:37:18.106Z,9.20
2023-05-12T21:39:51.578Z,12.32
2023-05-12T21:42:20.066Z,12.02
2023-05-12T21:44:51.551Z,10.07
2023-05-12T21:47:20.329Z,10.77
2023-05-12T21:49:48.757Z,8.32
2023-05-12T21:52:21.212Z,7.30
2023-05-12T21:54:49.947Z,11.80
2023-05-12T21:57:18.542Z,10.88
2023-05-12T21:59:47.087Z,8.45
2023-05-12T22:02:16.947Z,9.73
2023-05-12T22:04:45.576Z,8.88
2023-05-12T22:07:13.951Z,10.43
2023-05-12T22:09:42.330Z,9.32
2023-05-12T22:12:15.390Z,9.80
2023-05-12T22:14:44.306Z,11.48
2023-05-12T22:17:14.352Z,10.98
2023-05-12T22:19:44.842Z,12.30
2023-05-12T22:22:13.391Z,11.80
2023-05-12T22:24:41.761Z,9.43
2023-05-12T22:27:10.476Z,12.65
2023-05-12T22:29:39.119Z,16.85
2023-05-12T22:32:08.238Z,10.90
2023-05-12T22:34:36.828Z,15.70
2023-05-12T22:37:07.126Z,13.55
2023-05-12T22:39:36.810Z,14.13
2023-05-12T22:42:06.594Z,14.52
2023-05-12T22:44:35.006Z,12.98
2023-05-12T22:47:05.464Z,13.80
2023-05-12T22:49:34.322Z,15.65
2023-05-12T22:52:02.704Z,15.60
2023-05-12T22:54:32.831Z,14.38
2023-05-12T22:57:01.311Z,14.52
2023-05-12T22:59:30.018Z,11.93
2023-05-12T23:01:58.331Z,14.27
2023-05-12T23:04:26.936Z,13.93
2023-05-12T23:06:55.341Z,13.60
2023-05-12T23:09:23.854Z,13.88
2023-05-12T23:11:53.843Z,14.40
2023-05-12T23:14:22.489Z,13.60
2023-05-12T23:16:51.152Z,13.57
2023-05-12T23:19:19.599Z,13.85
2023-05-12T23:21:48.087Z,11.82
2023-05-12T23:24:16.566Z,13.73
2023-05-12T23:26:45.065Z,15.13
2023-05-12T23:29:14.875Z,11.68
2023-05-12T23:31:45.011Z,10.88
2023-05-12T23:34:13.944Z,12.63
2023-05-12T23:36:42.602Z,13.38
2023-05-12T23:39:11.209Z,11.57
2023-05-12T23:41:39.688Z,13.38
2023-05-12T23:44:08.155Z,12.40
2023-05-12T23:46:41.524Z,12.82
2023-05-12T23:49:10.105Z,15.40
2023-05-12T23:51:38.764Z,13.40
2023-05-12T23:54:07.503Z,13.13
2023-05-12T23:56:36.106Z,12.82
2023-05-12T23:59:04.606Z,10.95
